Time,TemperatureF,DewpointF,PressureIn,WindDirection,WindDirectionDegrees,WindSpeedMPH,WindSpeedGustMPH,Humidity,HourlyPrecipIn,Conditions,Clouds,dailyrainin,SoftwareType,DateUTC
2013-01-10 00:02:00,30.0,25.0,30.53,SW,233,0.0,0.0,82,0.00,,,0.00,,2013-01-10 06:02:00,
2013-01-10 00:12:00,30.0,25.0,30.53,SW,233,0.0,0.0,82,0.00,,,0.00,,2013-01-10 06:12:00,
2013-01-10 00:22:00,30.0,26.0,30.52,SW,233,0.0,0.0,86,0.00,,,0.00,,2013-01-10 06:22:00,
2013-01-10 00:32:00,29.0,26.0,30.51,SW,233,0.0,0.0,88,0.00,,,0.00,,2013-01-10 06:32:00,
2013-01-10 00:42:00,29.0,26.0,30.51,SW,233,0.0,0.0,88,0.00,,,0.00,,2013-01-10 06:42:00,
2013-01-10 00:52:00,29.0,26.0,30.50,WSW,242,0.0,1.0,88,0.00,,,0.00,,2013-01-10 06:52:00,
2013-01-10 01:02:00,31.0,27.0,30.49,NW,306,1.0,2.0,86,0.00,,,0.00,,2013-01-10 07:02:00,
2013-01-10 01:12:00,31.0,27.0,30.49,NW,306,1.0,2.0,86,0.00,,,0.00,,2013-01-10 07:12:00,
2013-01-10 01:22:00,31.0,27.0,30.49,NW,306,1.0,2.0,86,0.00,,,0.00,,2013-01-10 07:22:00,
2013-01-10 01:32:00,34.0,26.0,30.48,NNE,18,1.0,4.0,71,0.00,,,0.00,,2013-01-10 07:32:00,
2013-01-10 01:42:00,34.0,26.0,30.48,NNE,18,1.0,4.0,71,0.00,,,0.00,,2013-01-10 07:42:00,
2013-01-10 01:52:00,34.0,26.0,30.47,NNE,16,4.0,7.0,71,0.00,,,0.00,,2013-01-10 07:52:00,
2013-01-10 02:02:00,35.0,26.0,30.48,NE,44,4.0,6.0,68,0.00,,,0.00,,2013-01-10 08:02:00,
2013-01-10 02:12:00,35.0,26.0,30.48,NE,44,4.0,6.0,68,0.00,,,0.00,,2013-01-10 08:12:00,
2013-01-10 02:22:00,34.0,26.0,30.49,ESE,106,0.0,3.0,73,0.00,,,0.00,,2013-01-10 08:22:00,
2013-01-10 02:32:00,33.0,26.0,30.51,ESE,107,1.0,3.0,76,0.00,,,0.00,,2013-01-10 08:32:00,
2013-01-10 02:42:00,33.0,26.0,30.51,ESE,107,1.0,3.0,76,0.00,,,0.00,,2013-01-10 08:42:00,
2013-01-10 02:53:00,32.0,26.0,30.50,ESE,107,0.0,1.0,77,0.00,,,0.00,,2013-01-10 08:53:00,
2013-01-10 03:02:00,32.0,25.0,30.50,ESE,107,0.0,2.0,76,0.00,,,0.00,,2013-01-10 09:02:00,
2013-01-10 03:12:00,32.0,25.0,30.50,ESE,107,0.0,2.0,76,0.00,,,0.00,,2013-01-10 09:12:00,
2013-01-10 03:22:00,32.0,26.0,30.49,ESE,107,1.0,3.0,79,0.00,,,0.00,,2013-01-10 09:22:00,
2013-01-10 03:32:00,31.0,26.0,30.49,ESE,107,1.0,4.0,82,0.00,,,0.00,,2013-01-10 09:32:00,
2013-01-10 03:42:00,31.0,26.0,30.49,ESE,107,1.0,4.0,82,0.00,,,0.00,,2013-01-10 09:42:00,
2013-01-10 03:52:00,31.0,27.0,30.49,ESE,107,1.0,3.0,84,0.00,,,0.00,,2013-01-10 09:52:00,
2013-01-10 04:03:00,30.0,26.0,30.48,ESE,107,2.0,3.0,85,0.00,,,0.00,,2013-01-10 10:03:00,
2013-01-10 04:12:00,30.0,26.0,30.48,ESE,107,2.0,3.0,85,0.00,,,0.00,,2013-01-10 10:12:00,
2013-01-10 04:22:00,30.0,26.0,30.48,ESE,107,1.0,2.0,85,0.00,,,0.00,,2013-01-10 10:22:00,
2013-01-10 04:32:00,30.0,26.0,30.48,ESE,107,0.0,2.0,86,0.00,,,0.00,,2013-01-10 10:32:00,
2013-01-10 04:42:00,30.0,26.0,30.48,ESE,107,0.0,2.0,86,0.00,,,0.00,,2013-01-10 10:42:00,
2013-01-10 04:52:00,30.0,26.0,30.47,ESE,107,0.0,2.0,85,0.00,,,0.00,,2013-01-10 10:52:00,
2013-01-10 05:02:00,30.0,26.0,30.47,ESE,107,1.0,3.0,84,0.00,,,0.00,,2013-01-10 11:02:00,
2013-01-10 05:12:00,30.0,26.0,30.47,ESE,107,1.0,3.0,84,0.00,,,0.00,,2013-01-10 11:12:00,
2013-01-10 05:22:00,31.0,26.0,30.46,ESE,107,2.0,5.0,83,0.00,,,0.00,,2013-01-10 11:22:00,
2013-01-10 05:32:00,31.0,26.0,30.46,East,101,4.0,7.0,81,0.00,,,0.00,,2013-01-10 11:32:00,
2013-01-10 05:42:00,31.0,26.0,30.46,East,101,4.0,7.0,81,0.00,,,0.00,,2013-01-10 11:42:00,
2013-01-10 05:53:00,31.0,26.0,30.45,East,99,4.0,7.0,81,0.00,,,0.00,,2013-01-10 11:53:00,
2013-01-10 06:02:00,31.0,26.0,30.45,East,99,5.0,7.0,82,0.00,,,0.00,,2013-01-10 12:02:00,
2013-01-10 06:12:00,31.0,26.0,30.45,East,99,5.0,7.0,82,0.00,,,0.00,,2013-01-10 12:12:00,
2013-01-10 06:22:00,31.0,26.0,30.45,East,97,5.0,8.0,80,0.00,,,0.00,,2013-01-10 12:22:00,
2013-01-10 06:33:00,31.0,26.0,30.45,East,99,4.0,6.0,81,0.00,,,0.00,,2013-01-10 12:33:00,
2013-01-10 06:43:00,31.0,26.0,30.45,East,99,4.0,6.0,81,0.00,,,0.00,,2013-01-10 12:43:00,
2013-01-10 06:53:00,31.0,26.0,30.45,ESE,107,5.0,7.0,81,0.00,,,0.00,,2013-01-10 12:53:00,
2013-01-10 07:02:00,32.0,26.0,30.45,East,99,6.0,10.0,79,0.00,,,0.00,,2013-01-10 13:02:00,
2013-01-10 07:12:00,32.0,26.0,30.45,East,99,6.0,10.0,79,0.00,,,0.00,,2013-01-10 13:12:00,
2013-01-10 07:22:00,32.0,26.0,30.44,ESE,109,7.0,10.0,79,0.00,,,0.00,,2013-01-10 13:22:00,
2013-01-10 07:32:00,32.0,26.0,30.43,ESE,113,7.0,10.0,79,0.00,,,0.00,,2013-01-10 13:32:00,
2013-01-10 07:42:00,32.0,26.0,30.43,ESE,113,7.0,10.0,79,0.00,,,0.00,,2013-01-10 13:42:00,
2013-01-10 07:53:00,32.0,26.0,30.42,East,90,6.0,10.0,79,0.00,,,0.00,,2013-01-10 13:53:00,
2013-01-10 08:02:00,32.0,27.0,30.42,ESE,103,5.0,9.0,80,0.00,,,0.00,,2013-01-10 14:02:00,
2013-01-10 08:12:00,32.0,27.0,30.42,ESE,103,5.0,9.0,80,0.00,,,0.00,,2013-01-10 14:12:00,
2013-01-10 08:22:00,32.0,26.0,30.42,East,97,5.0,8.0,79,0.00,,,0.00,,2013-01-10 14:22:00,
2013-01-10 08:32:00,33.0,27.0,30.41,East,93,6.0,9.0,78,0.00,,,0.00,,2013-01-10 14:32:00,
2013-01-10 08:43:00,33.0,27.0,30.41,East,93,6.0,9.0,78,0.00,,,0.00,,2013-01-10 14:43:00,
2013-01-10 08:53:00,33.0,27.0,30.41,East,90,6.0,9.0,79,0.00,,,0.00,,2013-01-10 14:53:00,
2013-01-10 09:03:00,34.0,28.0,30.40,East,82,6.0,9.0,77,0.00,,,0.00,,2013-01-10 15:03:00,
2013-01-10 09:12:00,34.0,28.0,30.40,East,82,6.0,9.0,77,0.00,,,0.00,,2013-01-10 15:12:00,
2013-01-10 09:22:00,34.0,28.0,30.40,ENE,64,5.0,10.0,78,0.00,,,0.00,,2013-01-10 15:22:00,
2013-01-10 09:33:00,34.0,28.0,30.39,East,91,7.0,11.0,78,0.00,,,0.00,,2013-01-10 15:33:00,
2013-01-10 09:43:00,34.0,28.0,30.39,East,91,7.0,11.0,78,0.00,,,0.00,,2013-01-10 15:43:00,
2013-01-10 09:53:00,34.0,28.0,30.39,East,88,9.0,11.0,79,0.00,,,0.00,,2013-01-10 15:53:00,
2013-01-10 10:02:00,34.0,28.0,30.38,East,90,9.0,11.0,80,0.00,,,0.00,,2013-01-10 16:02:00,
2013-01-10 10:13:00,34.0,28.0,30.38,East,90,9.0,11.0,80,0.00,,,0.00,,2013-01-10 16:13:00,
2013-01-10 10:23:00,35.0,29.0,30.38,East,101,10.0,13.0,78,0.00,,,0.00,,2013-01-10 16:23:00,
2013-01-10 10:33:00,35.0,29.0,30.37,East,96,10.0,14.0,77,0.00,,,0.00,,2013-01-10 16:33:00,
2013-01-10 10:43:00,35.0,29.0,30.37,East,96,10.0,14.0,77,0.00,,,0.00,,2013-01-10 16:43:00,
2013-01-10 10:53:00,35.0,29.0,30.36,East,101,7.0,12.0,79,0.00,,,0.00,,2013-01-10 16:53:00,
2013-01-10 11:03:00,35.0,29.0,30.36,East,101,7.0,12.0,79,0.00,,,0.00,,2013-01-10 17:03:00,
2013-01-10 11:12:00,35.0,29.0,30.36,East,101,7.0,12.0,79,0.00,,,0.00,,2013-01-10 17:12:00,
2013-01-10 11:22:00,36.0,29.0,30.32,East,100,8.0,13.0,77,0.00,,,0.00,,2013-01-10 17:22:00,
2013-01-10 11:33:00,36.0,30.0,30.31,East,101,7.0,14.0,78,0.00,,,0.00,,2013-01-10 17:33:00,
2013-01-10 11:43:00,36.0,30.0,30.31,East,101,7.0,14.0,78,0.00,,,0.00,,2013-01-10 17:43:00,
2013-01-10 11:53:00,36.0,30.0,30.31,East,101,7.0,14.0,78,0.00,,,0.00,,2013-01-10 17:53:00,
2013-01-10 12:03:00,37.0,30.0,30.28,East,98,9.0,14.0,77,0.00,,,0.00,,2013-01-10 18:03:00,
2013-01-10 12:12:00,37.0,30.0,30.26,ESE,105,8.0,13.0,76,0.00,,,0.00,,2013-01-10 18:12:00,
2013-01-10 12:23:00,37.0,30.0,30.26,ESE,105,8.0,13.0,76,0.00,,,0.00,,2013-01-10 18:23:00,
2013-01-10 12:33:00,38.0,31.0,30.24,East,88,9.0,15.0,76,0.00,,,0.00,,2013-01-10 18:33:00,
2013-01-10 12:43:00,37.0,31.0,30.24,East,95,8.0,12.0,78,0.00,,,0.00,,2013-01-10 18:43:00,
2013-01-10 12:53:00,37.0,31.0,30.24,East,95,8.0,12.0,78,0.00,,,0.00,,2013-01-10 18:53:00,
2013-01-10 13:03:00,37.0,31.0,30.23,East,92,10.0,14.0,78,0.00,,,0.00,,2013-01-10 19:03:00,
2013-01-10 13:13:00,38.0,32.0,30.22,East,92,9.0,13.0,79,0.00,,,0.00,,2013-01-10 19:13:00,
2013-01-10 13:23:00,38.0,32.0,30.22,East,92,9.0,13.0,79,0.00,,,0.00,,2013-01-10 19:23:00,
2013-01-10 13:33:00,37.0,31.0,30.21,East,100,7.0,11.0,80,0.00,,,0.00,,2013-01-10 19:33:00,
2013-01-10 13:43:00,37.0,31.0,30.21,East,100,7.0,11.0,80,0.00,,,0.00,,2013-01-10 19:43:00,
2013-01-10 13:53:00,37.0,32.0,30.20,East,98,8.0,11.0,83,0.00,,,0.00,,2013-01-10 19:53:00,
2013-01-10 14:02:00,37.0,33.0,30.20,ESE,109,8.0,14.0,86,0.01,,,0.01,,2013-01-10 20:02:00,
2013-01-10 14:12:00,37.0,33.0,30.20,ESE,109,8.0,14.0,86,0.01,,,0.01,,2013-01-10 20:12:00,
2013-01-10 14:24:00,36.0,33.0,30.19,East,94,10.0,16.0,90,0.02,,,0.02,,2013-01-10 20:24:00,
2013-01-10 14:33:00,36.0,34.0,30.17,ESE,110,12.0,19.0,92,0.03,,,0.03,,2013-01-10 20:33:00,
2013-01-10 14:42:00,36.0,34.0,30.17,ESE,110,12.0,19.0,92,0.03,,,0.03,,2013-01-10 20:42:00,
2013-01-10 14:53:00,36.0,34.0,30.17,ESE,105,11.0,18.0,93,0.04,,,0.04,,2013-01-10 20:53:00,
2013-01-10 15:03:00,36.0,34.0,30.16,ESE,111,12.0,17.0,94,0.03,,,0.04,,2013-01-10 21:03:00,
2013-01-10 15:12:00,36.0,34.0,30.16,ESE,111,12.0,17.0,94,0.03,,,0.04,,2013-01-10 21:12:00,
2013-01-10 15:23:00,37.0,35.0,30.15,East,98,11.0,17.0,94,0.02,,,0.04,,2013-01-10 21:23:00,
2013-01-10 15:33:00,37.0,35.0,30.15,ESE,116,10.0,16.0,94,0.01,,,0.04,,2013-01-10 21:33:00,
2013-01-10 15:42:00,37.0,35.0,30.15,ESE,116,10.0,16.0,94,0.01,,,0.04,,2013-01-10 21:42:00,
2013-01-10 15:53:00,37.0,36.0,30.14,ESE,121,14.0,19.0,95,0.00,,,0.04,,2013-01-10 21:53:00,
2013-01-10 16:03:00,37.0,36.0,30.13,SE,126,11.0,19.0,95,0.00,,,0.04,,2013-01-10 22:03:00,
2013-01-10 16:12:00,37.0,36.0,30.13,SE,134,10.0,18.0,95,0.00,,,0.04,,2013-01-10 22:12:00,
2013-01-10 16:25:00,37.0,36.0,30.13,SE,134,10.0,18.0,95,0.00,,,0.04,,2013-01-10 22:25:00,
2013-01-10 16:43:00,37.0,36.0,30.12,ESE,113,10.0,15.0,95,0.00,,,0.04,,2013-01-10 22:43:00,
2013-01-10 17:02:00,38.0,37.0,30.11,ESE,123,13.0,16.0,96,0.00,,,0.04,,2013-01-10 23:02:00,
2013-01-10 17:12:00,38.0,37.0,30.11,ESE,123,13.0,16.0,96,0.00,,,0.04,,2013-01-10 23:12:00,
2013-01-10 17:23:00,38.0,37.0,30.10,ESE,114,11.0,16.0,96,0.00,,,0.04,,2013-01-10 23:23:00,
2013-01-10 17:33:00,38.0,37.0,30.10,ESE,116,8.0,14.0,97,0.00,,,0.04,,2013-01-10 23:33:00,
2013-01-10 17:43:00,38.0,37.0,30.10,ESE,116,8.0,14.0,97,0.00,,,0.04,,2013-01-10 23:43:00,
2013-01-10 17:53:00,38.0,37.0,30.08,ESE,114,8.0,13.0,97,0.00,,,0.04,,2013-01-10 23:53:00,
2013-01-10 18:02:00,38.0,37.0,30.08,ESE,108,8.0,14.0,97,0.00,,,0.04,,2013-01-11 00:02:00,
2013-01-10 18:12:00,38.0,37.0,30.08,ESE,108,8.0,14.0,97,0.00,,,0.04,,2013-01-11 00:12:00,
2013-01-10 18:23:00,39.0,38.0,30.06,ESE,111,9.0,15.0,97,0.00,,,0.04,,2013-01-11 00:23:00,
2013-01-10 18:33:00,39.0,38.0,30.05,ESE,120,7.0,12.0,97,0.00,,,0.04,,2013-01-11 00:33:00,
2013-01-10 18:42:00,39.0,38.0,30.05,ESE,120,7.0,12.0,97,0.00,,,0.04,,2013-01-11 00:42:00,
2013-01-10 18:53:00,39.0,38.0,30.05,SE,126,12.0,16.0,97,0.00,,,0.04,,2013-01-11 00:53:00,
2013-01-10 19:03:00,40.0,39.0,30.03,ESE,106,12.0,17.0,97,0.00,,,0.04,,2013-01-11 01:03:00,
2013-01-10 19:13:00,40.0,39.0,30.02,SE,127,10.0,15.0,97,0.01,,,0.05,,2013-01-11 01:13:00,
2013-01-10 19:23:00,40.0,39.0,30.02,SE,127,10.0,15.0,97,0.01,,,0.05,,2013-01-11 01:23:00,
2013-01-10 19:33:00,40.0,39.0,30.01,ESE,105,10.0,16.0,97,0.06,,,0.10,,2013-01-11 01:33:00,
2013-01-10 19:43:00,40.0,39.0,30.01,ESE,105,10.0,16.0,97,0.06,,,0.10,,2013-01-11 01:43:00,
2013-01-10 19:53:00,41.0,40.0,30.01,ESE,122,11.0,15.0,97,0.10,,,0.14,,2013-01-11 01:53:00,
2013-01-10 20:02:00,41.0,40.0,30.01,SE,125,12.0,17.0,98,0.22,,,0.26,,2013-01-11 02:02:00,
2013-01-10 20:13:00,41.0,40.0,30.01,SE,125,12.0,17.0,98,0.22,,,0.26,,2013-01-11 02:13:00,
2013-01-10 20:23:00,41.0,40.0,29.99,ESE,117,12.0,16.0,98,0.23,,,0.28,,2013-01-11 02:23:00,
2013-01-10 20:33:00,41.0,40.0,29.99,SE,133,9.0,15.0,97,0.17,,,0.28,,2013-01-11 02:33:00,
2013-01-10 20:43:00,41.0,40.0,29.99,SE,133,9.0,15.0,97,0.17,,,0.28,,2013-01-11 02:43:00,
2013-01-10 20:54:00,42.0,41.0,29.99,SE,128,8.0,13.0,98,0.14,,,0.28,,2013-01-11 02:54:00,
2013-01-10 21:02:00,43.0,42.0,29.98,SE,140,9.0,13.0,98,0.01,,,0.28,,2013-01-11 03:02:00,
2013-01-10 21:12:00,43.0,42.0,29.98,SE,140,9.0,13.0,98,0.01,,,0.28,,2013-01-11 03:12:00,
2013-01-10 21:23:00,43.0,42.0,29.98,SE,140,9.0,13.0,98,0.01,,,0.28,,2013-01-11 03:23:00,
2013-01-10 21:33:00,44.0,43.0,29.96,SE,142,12.0,16.0,98,0.00,,,0.28,,2013-01-11 03:33:00,
2013-01-10 21:43:00,44.0,43.0,29.96,SE,142,12.0,16.0,98,0.00,,,0.28,,2013-01-11 03:43:00,
2013-01-10 21:53:00,44.0,43.0,29.96,SSE,148,10.0,16.0,98,0.01,,,0.28,,2013-01-11 03:53:00,
2013-01-10 22:02:00,45.0,44.0,29.96,SSE,148,10.0,15.0,98,0.06,,,0.34,,2013-01-11 04:02:00,
2013-01-10 22:12:00,45.0,44.0,29.96,SSE,148,10.0,15.0,98,0.06,,,0.34,,2013-01-11 04:12:00,
2013-01-10 22:22:00,45.0,44.0,29.96,SSE,148,10.0,15.0,98,0.06,,,0.34,,2013-01-11 04:22:00,
2013-01-10 22:33:00,46.0,45.0,29.93,SE,138,9.0,15.0,98,0.14,,,0.42,,2013-01-11 04:33:00,
2013-01-10 22:42:00,46.0,45.0,29.93,SE,138,9.0,15.0,98,0.14,,,0.42,,2013-01-11 04:42:00,
2013-01-10 22:53:00,46.0,45.0,29.92,SE,140,11.0,18.0,98,0.15,,,0.44,,2013-01-11 04:53:00,
2013-01-10 23:03:00,47.0,46.0,29.91,SE,146,9.0,17.0,98,0.11,,,0.45,,2013-01-11 05:03:00,
2013-01-10 23:12:00,47.0,46.0,29.91,SE,146,9.0,17.0,98,0.11,,,0.45,,2013-01-11 05:12:00,
2013-01-10 23:22:00,47.0,46.0,29.89,SE,127,10.0,14.0,98,0.07,,,0.46,,2013-01-11 05:22:00,
2013-01-10 23:33:00,48.0,47.0,29.88,ESE,108,10.0,13.0,98,0.05,,,0.47,,2013-01-11 05:33:00,
2013-01-10 23:42:00,48.0,47.0,29.88,ESE,108,10.0,13.0,98,0.05,,,0.47,,2013-01-11 05:42:00,
2013-01-10 23:53:00,46.0,45.0,29.87,ESE,118,9.0,13.0,98,0.03,,,0.47,,2013-01-11 05:53:00,